sensor_id;sensor_type;location;lat;lon;timestamp;P1;durP1;ratioP1;P2;durP2;ratioP2
18114;SDS011;9184;54.390;18.620;2022-11-11T00:00:07;26.10;;;12.85;;
18114;SDS011;9184;54.390;18.620;2022-11-11T00:00:39;30.27;;;12.85;;
18114;SDS011;9184;54.390;18.620;2022-11-11T00:01:11;24.83;;;11.98;;
18114;SDS011;9184;54.390;18.620;2022-11-11T00:01:41;20.73;;;10.80;;
18114;SDS011;9184;54.390;18.620;2022-11-11T00:02:13;24.52;;;12.05;;
18114;SDS011;9184;54.390;18.620;2022-11-11T00:02:43;28.30;;;12.25;;
18114;SDS011;9184;54.390;18.620;2022-11-11T00:03:14;29.58;;;12.77;;
18114;SDS011;9184;54.390;18.620;2022-11-11T00:03:45;21.88;;;11.93;;
18114;SDS011;9184;54.390;18.620;2022-11-11T00:04:16;26.08;;;12.93;;
18114;SDS011;9184;54.390;18.620;2022-11-11T00:04:46;22.70;;;12.10;;
18114;SDS011;9184;54.390;18.620;2022-11-11T00:05:18;21.38;;;12.30;;
18114;SDS011;9184;54.390;18.620;2022-11-11T00:05:49;28.20;;;12.45;;
18114;SDS011;9184;54.390;18.620;2022-11-11T00:06:19;25.67;;;12.45;;
18114;SDS011;9184;54.390;18.620;2022-11-11T00:06:50;26.63;;;12.18;;
18114;SDS011;9184;54.390;18.620;2022-11-11T00:07:22;24.15;;;12.23;;
18114;SDS011;9184;54.390;18.620;2022-11-11T00:07:53;26.67;;;12.45;;
18114;SDS011;9184;54.390;18.620;2022-11-11T00:08:23;28.98;;;12.95;;
18114;SDS011;9184;54.390;18.620;2022-11-11T00:08:54;26.33;;;12.02;;
18114;SDS011;9184;54.390;18.620;2022-11-11T00:09:25;19.10;;;11.68;;
18114;SDS011;9184;54.390;18.620;2022-11-11T00:09:55;29.92;;;12.57;;
18114;SDS011;9184;54.390;18.620;2022-11-11T00:10:27;24.05;;;10.85;;
18114;SDS011;9184;54.390;18.620;2022-11-11T00:11:01;18.63;;;10.15;;
18114;SDS011;9184;54.390;18.620;2022-11-11T00:11:31;23.20;;;12.05;;
18114;SDS011;9184;54.390;18.620;2022-11-11T00:12:03;25.75;;;12.40;;
18114;SDS011;9184;54.390;18.620;2022-11-11T00:12:34;25.48;;;12.45;;
18114;SDS011;9184;54.390;18.620;2022-11-11T00:13:04;23.35;;;12.00;;
18114;SDS011;9184;54.390;18.620;2022-11-11T00:13:37;23.55;;;11.65;;
18114;SDS011;9184;54.390;18.620;2022-11-11T00:14:08;24.73;;;12.73;;
18114;SDS011;9184;54.390;18.620;2022-11-11T00:14:40;21.95;;;12.13;;
18114;SDS011;9184;54.390;18.620;2022-11-11T00:15:10;26.02;;;11.80;;
18114;SDS011;9184;54.390;18.620;2022-11-11T00:15:40;26.75;;;11.75;;
18114;SDS011;9184;54.390;18.620;2022-11-11T00:16:11;23.40;;;13.18;;
18114;SDS011;9184;54.390;18.620;2022-11-11T00:16:43;24.85;;;12.35;;
18114;SDS011;9184;54.390;18.620;2022-11-11T00:17:32;27.02;;;11.88;;
18114;SDS011;9184;54.390;18.620;2022-11-11T00:18:32;32.60;;;13.15;;
18114;SDS011;9184;54.390;18.620;2022-11-11T00:19:21;27.83;;;13.05;;
18114;SDS011;9184;54.390;18.620;2022-11-11T00:20:10;22.55;;;11.95;;
18114;SDS011;9184;54.390;18.620;2022-11-11T00:20:59;28.20;;;12.07;;
18114;SDS011;9184;54.390;18.620;2022-11-11T00:21:48;24.90;;;11.57;;
18114;SDS011;9184;54.390;18.620;2022-11-11T00:22:37;18.48;;;11.73;;
18114;SDS011;9184;54.390;18.620;2022-11-11T00:23:26;23.13;;;12.00;;
18114;SDS011;9184;54.390;18.620;2022-11-11T00:24:20;31.80;;;11.82;;
18114;SDS011;9184;54.390;18.620;2022-11-11T00:25:09;24.35;;;11.70;;
18114;SDS011;9184;54.390;18.620;2022-11-11T00:25:41;23.83;;;11.98;;
18114;SDS011;9184;54.390;18.620;2022-11-11T00:26:12;24.42;;;12.82;;
18114;SDS011;9184;54.390;18.620;2022-11-11T00:26:43;26.77;;;12.50;;
18114;SDS011;9184;54.390;18.620;2022-11-11T00:27:13;22.52;;;12.10;;
18114;SDS011;9184;54.390;18.620;2022-11-11T00:27:46;24.92;;;12.00;;
18114;SDS011;9184;54.390;18.620;2022-11-11T00:28:16;23.13;;;12.73;;
18114;SDS011;9184;54.390;18.620;2022-11-11T00:28:48;21.02;;;12.48;;
18114;SDS011;9184;54.390;18.620;2022-11-11T00:29:19;24.02;;;12.10;;
18114;SDS011;9184;54.390;18.620;2022-11-11T00:29:50;25.58;;;11.98;;
18114;SDS011;9184;54.390;18.620;2022-11-11T00:30:20;26.52;;;12.05;;
18114;SDS011;9184;54.390;18.620;2022-11-11T00:30:59;26.20;;;11.55;;
18114;SDS011;9184;54.390;18.620;2022-11-11T00:31:29;25.15;;;11.98;;
18114;SDS011;9184;54.390;18.620;2022-11-11T00:32:00;27.27;;;13.35;;
18114;SDS011;9184;54.390;18.620;2022-11-11T00:32:48;23.83;;;12.15;;
18114;SDS011;9184;54.390;18.620;2022-11-11T00:33:20;29.17;;;12.52;;
18114;SDS011;9184;54.390;18.620;2022-11-11T00:33:51;24.65;;;11.77;;
18114;SDS011;9184;54.390;18.620;2022-11-11T00:34:21;24.20;;;12.98;;
18114;SDS011;9184;54.390;18.620;2022-11-11T00:34:55;27.58;;;13.52;;
18114;SDS011;9184;54.390;18.620;2022-11-11T00:35:44;27.65;;;11.68;;
18114;SDS011;9184;54.390;18.620;2022-11-11T00:36:25;25.63;;;11.13;;
18114;SDS011;9184;54.390;18.620;2022-11-11T00:36:55;24.77;;;13.10;;
18114;SDS011;9184;54.390;18.620;2022-11-11T00:37:26;23.95;;;11.95;;
18114;SDS011;9184;54.390;18.620;2022-11-11T00:37:57;27.98;;;11.32;;
18114;SDS011;9184;54.390;18.620;2022-11-11T00:38:35;25.60;;;12.77;;
18114;SDS011;9184;54.390;18.620;2022-11-11T00:39:16;30.48;;;12.30;;
18114;SDS011;9184;54.390;18.620;2022-11-11T00:39:46;22.67;;;11.75;;
18114;SDS011;9184;54.390;18.620;2022-11-11T00:40:17;19.80;;;11.98;;
18114;SDS011;9184;54.390;18.620;2022-11-11T00:40:48;22.55;;;11.63;;
18114;SDS011;9184;54.390;18.620;2022-11-11T00:41:19;26.35;;;11.35;;
18114;SDS011;9184;54.390;18.620;2022-11-11T00:41:50;26.60;;;13.18;;
18114;SDS011;9184;54.390;18.620;2022-11-11T00:42:21;25.88;;;12.23;;
18114;SDS011;9184;54.390;18.620;2022-11-11T00:42:51;26.10;;;12.98;;
18114;SDS011;9184;54.390;18.620;2022-11-11T00:43:22;26.45;;;12.00;;
18114;SDS011;9184;54.390;18.620;2022-11-11T00:43:54;19.60;;;11.70;;
18114;SDS011;9184;54.390;18.620;2022-11-11T00:44:25;19.13;;;10.75;;
18114;SDS011;9184;54.390;18.620;2022-11-11T00:44:55;21.38;;;12.35;;
18114;SDS011;9184;54.390;18.620;2022-11-11T00:45:26;27.23;;;12.05;;
18114;SDS011;9184;54.390;18.620;2022-11-11T00:45:57;24.95;;;12.35;;
18114;SDS011;9184;54.390;18.620;2022-11-11T00:46:42;24.17;;;11.85;;
18114;SDS011;9184;54.390;18.620;2022-11-11T00:47:31;24.95;;;12.75;;
18114;SDS011;9184;54.390;18.620;2022-11-11T00:48:20;19.60;;;10.75;;
18114;SDS011;9184;54.390;18.620;2022-11-11T00:49:09;28.75;;;12.07;;
18114;SDS011;9184;54.390;18.620;2022-11-11T00:49:58;24.35;;;11.40;;
18114;SDS011;9184;54.390;18.620;2022-11-11T00:50:47;26.45;;;11.63;;
18114;SDS011;9184;54.390;18.620;2022-11-11T00:51:28;20.80;;;11.23;;
18114;SDS011;9184;54.390;18.620;2022-11-11T00:51:59;18.25;;;11.15;;
18114;SDS011;9184;54.390;18.620;2022-11-11T00:52:29;25.02;;;12.20;;
18114;SDS011;9184;54.390;18.620;2022-11-11T00:53:01;21.95;;;11.57;;
18114;SDS011;9184;54.390;18.620;2022-11-11T00:53:31;19.85;;;12.18;;
18114;SDS011;9184;54.390;18.620;2022-11-11T00:54:02;26.35;;;12.40;;
18114;SDS011;9184;54.390;18.620;2022-11-11T00:54:33;21.90;;;11.68;;
18114;SDS011;9184;54.390;18.620;2022-11-11T00:55:04;31.23;;;12.65;;
18114;SDS011;9184;54.390;18.620;2022-11-11T00:55:35;22.83;;;11.95;;
18114;SDS011;9184;54.390;18.620;2022-11-11T00:56:05;22.85;;;12.23;;
18114;SDS011;9184;54.390;18.620;2022-11-11T00:56:37;24.42;;;11.73;;
18114;SDS011;9184;54.390;18.620;2022-11-11T00:57:08;25.42;;;11.70;;
18114;SDS011;9184;54.390;18.620;2022-11-11T00:57:38;21.35;;;12.45;;
18114;SDS011;9184;54.390;18.620;2022-11-11T00:58:09;22.77;;;11.32;;
18114;SDS011;9184;54.390;18.620;2022-11-11T00:58:40;22.42;;;11.95;;
18114;SDS011;9184;54.390;18.620;2022-11-11T00:59:12;22.15;;;12.57;;
18114;SDS011;9184;54.390;18.620;2022-11-11T00:59:42;24.63;;;11.00;;
18114;SDS011;9184;54.390;18.620;2022-11-11T01:00:14;23.95;;;12.32;;
18114;SDS011;9184;54.390;18.620;2022-11-11T01:00:44;20.65;;;11.63;;
18114;SDS011;9184;54.390;18.620;2022-11-11T01:01:15;21.17;;;11.93;;
18114;SDS011;9184;54.390;18.620;2022-11-11T01:01:46;33.45;;;13.27;;
18114;SDS011;9184;54.390;18.620;2022-11-11T01:02:17;17.23;;;10.77;;
18114;SDS011;9184;54.390;18.620;2022-11-11T01:02:47;30.40;;;12.63;;
18114;SDS011;9184;54.390;18.620;2022-11-11T01:03:19;26.55;;;11.57;;
18114;SDS011;9184;54.390;18.620;2022-11-11T01:03:49;22.15;;;11.00;;
18114;SDS011;9184;54.390;18.620;2022-11-11T01:04:20;23.15;;;11.98;;
18114;SDS011;9184;54.390;18.620;2022-11-11T01:04:51;28.58;;;11.75;;
18114;SDS011;9184;54.390;18.620;2022-11-11T01:05:21;23.35;;;12.57;;
18114;SDS011;9184;54.390;18.620;2022-11-11T01:05:52;22.75;;;11.48;;
18114;SDS011;9184;54.390;18.620;2022-11-11T01:06:23;28.92;;;11.95;;
18114;SDS011;9184;54.390;18.620;2022-11-11T01:06:54;17.55;;;11.15;;
18114;SDS011;9184;54.390;18.620;2022-11-11T01:07:24;24.17;;;11.88;;
18114;SDS011;9184;54.390;18.620;2022-11-11T01:07:55;21.42;;;12.27;;
18114;SDS011;9184;54.390;18.620;2022-11-11T01:08:26;22.63;;;11.52;;
18114;SDS011;9184;54.390;18.620;2022-11-11T01:08:57;24.02;;;12.32;;
18114;SDS011;9184;54.390;18.620;2022-11-11T01:09:27;24.52;;;13.77;;
18114;SDS011;9184;54.390;18.620;2022-11-11T01:09:59;23.17;;;13.27;;
18114;SDS011;9184;54.390;18.620;2022-11-11T01:10:29;29.67;;;13.13;;
18114;SDS011;9184;54.390;18.620;2022-11-11T01:11:11;28.60;;;12.98;;
18114;SDS011;9184;54.390;18.620;2022-11-11T01:11:42;32.28;;;13.05;;
18114;SDS011;9184;54.390;18.620;2022-11-11T01:12:13;25.80;;;13.48;;
18114;SDS011;9184;54.390;18.620;2022-11-11T01:12:43;24.25;;;13.82;;
18114;SDS011;9184;54.390;18.620;2022-11-11T01:13:15;28.23;;;13.48;;
18114;SDS011;9184;54.390;18.620;2022-11-11T01:13:47;24.40;;;14.25;;
18114;SDS011;9184;54.390;18.620;2022-11-11T01:14:19;26.92;;;13.73;;
18114;SDS011;9184;54.390;18.620;2022-11-11T01:14:50;30.60;;;14.80;;
18114;SDS011;9184;54.390;18.620;2022-11-11T01:15:22;24.17;;;13.85;;
18114;SDS011;9184;54.390;18.620;2022-11-11T01:15:56;32.63;;;14.68;;
18114;SDS011;9184;54.390;18.620;2022-11-11T01:16:28;27.75;;;13.80;;
18114;SDS011;9184;54.390;18.620;2022-11-11T01:16:58;31.35;;;14.18;;
18114;SDS011;9184;54.390;18.620;2022-11-11T01:17:29;31.58;;;14.43;;
18114;SDS011;9184;54.390;18.620;2022-11-11T01:17:59;32.75;;;14.48;;
18114;SDS011;9184;54.390;18.620;2022-11-11T01:18:31;26.40;;;14.10;;
18114;SDS011;9184;54.390;18.620;2022-11-11T01:19:01;24.90;;;14.45;;
18114;SDS011;9184;54.390;18.620;2022-11-11T01:19:33;28.67;;;15.23;;
18114;SDS011;9184;54.390;18.620;2022-11-11T01:20:03;23.15;;;14.25;;
18114;SDS011;9184;54.390;18.620;2022-11-11T01:20:34;25.40;;;13.90;;
18114;SDS011;9184;54.390;18.620;2022-11-11T01:21:07;25.00;;;14.13;;
18114;SDS011;9184;54.390;18.620;2022-11-11T01:21:39;26.17;;;12.93;;
18114;SDS011;9184;54.390;18.620;2022-11-11T01:22:09;27.73;;;13.85;;
18114;SDS011;9184;54.390;18.620;2022-11-11T01:22:40;27.77;;;14.15;;
18114;SDS011;9184;54.390;18.620;2022-11-11T01:23:11;26.65;;;13.98;;
18114;SDS011;9184;54.390;18.620;2022-11-11T01:23:42;24.52;;;14.90;;
18114;SDS011;9184;54.390;18.620;2022-11-11T01:24:14;24.67;;;14.05;;
18114;SDS011;9184;54.390;18.620;2022-11-11T01:24:45;28.83;;;14.77;;
18114;SDS011;9184;54.390;18.620;2022-11-11T01:25:15;29.13;;;15.23;;
18114;SDS011;9184;54.390;18.620;2022-11-11T01:25:47;22.52;;;14.18;;
18114;SDS011;9184;54.390;18.620;2022-11-11T01:26:19;37.58;;;15.88;;
18114;SDS011;9184;54.390;18.620;2022-11-11T01:26:50;25.90;;;14.05;;
18114;SDS011;9184;54.390;18.620;2022-11-11T01:27:20;30.35;;;15.18;;
18114;SDS011;9184;54.390;18.620;2022-11-11T01:27:51;31.13;;;14.68;;
18114;SDS011;9184;54.390;18.620;2022-11-11T01:28:22;24.80;;;14.43;;
18114;SDS011;9184;54.390;18.620;2022-11-11T01:28:53;27.60;;;13.80;;
18114;SDS011;9184;54.390;18.620;2022-11-11T01:29:26;29.80;;;14.75;;
18114;SDS011;9184;54.390;18.620;2022-11-11T01:29:56;25.55;;;13.30;;
18114;SDS011;9184;54.390;18.620;2022-11-11T01:30:27;28.90;;;14.90;;
18114;SDS011;9184;54.390;18.620;2022-11-11T01:30:59;27.42;;;14.88;;
18114;SDS011;9184;54.390;18.620;2022-11-11T01:31:29;34.53;;;14.60;;
18114;SDS011;9184;54.390;18.620;2022-11-11T01:32:00;24.17;;;13.98;;
18114;SDS011;9184;54.390;18.620;2022-11-11T01:32:31;32.85;;;14.93;;
18114;SDS011;9184;54.390;18.620;2022-11-11T01:33:02;26.25;;;13.88;;
18114;SDS011;9184;54.390;18.620;2022-11-11T01:33:33;34.08;;;14.38;;
18114;SDS011;9184;54.390;18.620;2022-11-11T01:34:03;32.60;;;15.40;;
18114;SDS011;9184;54.390;18.620;2022-11-11T01:34:35;26.17;;;14.05;;
18114;SDS011;9184;54.390;18.620;2022-11-11T01:35:05;31.95;;;14.40;;
18114;SDS011;9184;54.390;18.620;2022-11-11T01:35:37;29.92;;;15.20;;
18114;SDS011;9184;54.390;18.620;2022-11-11T01:36:08;29.33;;;14.15;;
18114;SDS011;9184;54.390;18.620;2022-11-11T01:36:40;27.73;;;13.70;;
18114;SDS011;9184;54.390;18.620;2022-11-11T01:37:11;25.73;;;13.68;;
18114;SDS011;9184;54.390;18.620;2022-11-11T01:37:44;29.80;;;13.63;;
18114;SDS011;9184;54.390;18.620;2022-11-11T01:38:15;25.83;;;13.85;;
18114;SDS011;9184;54.390;18.620;2022-11-11T01:38:47;23.98;;;14.63;;
18114;SDS011;9184;54.390;18.620;2022-11-11T01:39:18;23.73;;;13.85;;
18114;SDS011;9184;54.390;18.620;2022-11-11T01:39:49;25.70;;;14.07;;
18114;SDS011;9184;54.390;18.620;2022-11-11T01:40:20;29.35;;;14.73;;
18114;SDS011;9184;54.390;18.620;2022-11-11T01:40:51;25.70;;;14.48;;
18114;SDS011;9184;54.390;18.620;2022-11-11T01:41:22;30.58;;;14.00;;
18114;SDS011;9184;54.390;18.620;2022-11-11T01:42:03;26.85;;;13.38;;
18114;SDS011;9184;54.390;18.620;2022-11-11T01:42:44;24.52;;;14.07;;
18114;SDS011;9184;54.390;18.620;2022-11-11T01:43:19;23.65;;;13.15;;
18114;SDS011;9184;54.390;18.620;2022-11-11T01:43:51;25.30;;;13.52;;
18114;SDS011;9184;54.390;18.620;2022-11-11T01:44:44;29.45;;;13.82;;
18114;SDS011;9184;54.390;18.620;2022-11-11T01:46:08;21.95;;;13.60;;
18114;SDS011;9184;54.390;18.620;2022-11-11T01:46:46;22.10;;;13.02;;
18114;SDS011;9184;54.390;18.620;2022-11-11T01:47:20;22.58;;;13.85;;
18114;SDS011;9184;54.390;18.620;2022-11-11T01:47:51;20.83;;;12.68;;
18114;SDS011;9184;54.390;18.620;2022-11-11T01:48:40;29.15;;;14.02;;
18114;SDS011;9184;54.390;18.620;2022-11-11T01:49:31;26.40;;;14.95;;
18114;SDS011;9184;54.390;18.620;2022-11-11T01:50:03;21.67;;;14.15;;
18114;SDS011;9184;54.390;18.620;2022-11-11T01:50:34;31.13;;;16.13;;
18114;SDS011;9184;54.390;18.620;2022-11-11T01:51:05;24.13;;;13.77;;
18114;SDS011;9184;54.390;18.620;2022-11-11T01:51:39;25.65;;;15.30;;
18114;SDS011;9184;54.390;18.620;2022-11-11T01:52:12;27.05;;;15.30;;
18114;SDS011;9184;54.390;18.620;2022-11-11T01:52:43;30.90;;;15.48;;
18114;SDS011;9184;54.390;18.620;2022-11-11T01:53:14;31.20;;;14.88;;
18114;SDS011;9184;54.390;18.620;2022-11-11T01:53:46;28.13;;;15.57;;
18114;SDS011;9184;54.390;18.620;2022-11-11T01:54:23;26.77;;;16.27;;
18114;SDS011;9184;54.390;18.620;2022-11-11T01:54:55;28.02;;;16.02;;
18114;SDS011;9184;54.390;18.620;2022-11-11T01:55:28;22.08;;;14.93;;
18114;SDS011;9184;54.390;18.620;2022-11-11T01:55:59;33.83;;;15.15;;
18114;SDS011;9184;54.390;18.620;2022-11-11T01:56:30;30.92;;;15.15;;
18114;SDS011;9184;54.390;18.620;2022-11-11T01:57:03;25.98;;;15.68;;
18114;SDS011;9184;54.390;18.620;2022-11-11T01:57:36;32.00;;;16.27;;
18114;SDS011;9184;54.390;18.620;2022-11-11T01:58:09;28.75;;;14.70;;
18114;SDS011;9184;54.390;18.620;2022-11-11T01:58:41;27.70;;;14.05;;
18114;SDS011;9184;54.390;18.620;2022-11-11T01:59:13;26.25;;;14.80;;
18114;SDS011;9184;54.390;18.620;2022-11-11T01:59:47;28.25;;;15.13;;
18114;SDS011;9184;54.390;18.620;2022-11-11T02:00:20;25.70;;;14.75;;
18114;SDS011;9184;54.390;18.620;2022-11-11T02:00:51;27.55;;;15.05;;
18114;SDS011;9184;54.390;18.620;2022-11-11T02:01:21;19.25;;;14.18;;
18114;SDS011;9184;54.390;18.620;2022-11-11T02:01:53;31.83;;;14.52;;
18114;SDS011;9184;54.390;18.620;2022-11-11T02:02:24;27.25;;;15.27;;
18114;SDS011;9184;54.390;18.620;2022-11-11T02:02:57;23.60;;;15.13;;
18114;SDS011;9184;54.390;18.620;2022-11-11T02:03:28;29.88;;;15.90;;
18114;SDS011;9184;54.390;18.620;2022-11-11T02:04:02;26.15;;;15.57;;
18114;SDS011;9184;54.390;18.620;2022-11-11T02:04:52;24.50;;;15.10;;
18114;SDS011;9184;54.390;18.620;2022-11-11T02:05:42;24.02;;;15.35;;
18114;SDS011;9184;54.390;18.620;2022-11-11T02:06:14;35.75;;;15.02;;
18114;SDS011;9184;54.390;18.620;2022-11-11T02:06:45;32.58;;;14.32;;
18114;SDS011;9184;54.390;18.620;2022-11-11T02:07:16;30.70;;;15.70;;
18114;SDS011;9184;54.390;18.620;2022-11-11T02:07:48;23.25;;;15.63;;
18114;SDS011;9184;54.390;18.620;2022-11-11T02:08:21;24.65;;;15.43;;
18114;SDS011;9184;54.390;18.620;2022-11-11T02:09:01;24.95;;;14.27;;
18114;SDS011;9184;54.390;18.620;2022-11-11T02:09:33;23.33;;;14.00;;
18114;SDS011;9184;54.390;18.620;2022-11-11T02:10:05;24.00;;;14.38;;
18114;SDS011;9184;54.390;18.620;2022-11-11T02:10:38;23.60;;;13.77;;
18114;SDS011;9184;54.390;18.620;2022-11-11T02:11:11;28.70;;;15.48;;
18114;SDS011;9184;54.390;18.620;2022-11-11T02:11:44;34.45;;;16.05;;
18114;SDS011;9184;54.390;18.620;2022-11-11T02:12:33;21.50;;;12.95;;
18114;SDS011;9184;54.390;18.620;2022-11-11T02:13:22;23.80;;;13.85;;
18114;SDS011;9184;54.390;18.620;2022-11-11T02:14:11;31.08;;;14.32;;
18114;SDS011;9184;54.390;18.620;2022-11-11T02:15:02;30.90;;;15.40;;
18114;SDS011;9184;54.390;18.620;2022-11-11T02:15:33;26.60;;;14.35;;
18114;SDS011;9184;54.390;18.620;2022-11-11T02:16:05;28.92;;;15.07;;
18114;SDS011;9184;54.390;18.620;2022-11-11T02:16:35;29.50;;;14.52;;
18114;SDS011;9184;54.390;18.620;2022-11-11T02:17:07;28.15;;;14.73;;
18114;SDS011;9184;54.390;18.620;2022-11-11T02:17:39;28.63;;;15.07;;
18114;SDS011;9184;54.390;18.620;2022-11-11T02:18:10;20.83;;;14.27;;
18114;SDS011;9184;54.390;18.620;2022-11-11T02:18:41;23.77;;;14.13;;
18114;SDS011;9184;54.390;18.620;2022-11-11T02:19:12;28.60;;;14.60;;
18114;SDS011;9184;54.390;18.620;2022-11-11T02:19:45;27.58;;;13.88;;
18114;SDS011;9184;54.390;18.620;2022-11-11T02:20:18;27.20;;;13.63;;
18114;SDS011;9184;54.390;18.620;2022-11-11T02:20:50;27.45;;;14.90;;
18114;SDS011;9184;54.390;18.620;2022-11-11T02:21:23;27.65;;;14.20;;
18114;SDS011;9184;54.390;18.620;2022-11-11T02:21:56;27.67;;;15.00;;
18114;SDS011;9184;54.390;18.620;2022-11-11T02:22:33;24.50;;;14.05;;
18114;SDS011;9184;54.390;18.620;2022-11-11T02:23:06;25.80;;;14.18;;
18114;SDS011;9184;54.390;18.620;2022-11-11T02:23:40;31.40;;;15.05;;
18114;SDS011;9184;54.390;18.620;2022-11-11T02:24:14;24.05;;;14.13;;
18114;SDS011;9184;54.390;18.620;2022-11-11T02:24:46;22.95;;;13.02;;
18114;SDS011;9184;54.390;18.620;2022-11-11T02:25:17;25.38;;;13.73;;
18114;SDS011;9184;54.390;18.620;2022-11-11T02:25:49;32.88;;;14.32;;
18114;SDS011;9184;54.390;18.620;2022-11-11T02:26:21;25.65;;;14.07;;
18114;SDS011;9184;54.390;18.620;2022-11-11T02:26:51;21.80;;;13.07;;
18114;SDS011;9184;54.390;18.620;2022-11-11T02:27:25;22.83;;;13.57;;
18114;SDS011;9184;54.390;18.620;2022-11-11T02:27:57;22.38;;;13.27;;
18114;SDS011;9184;54.390;18.620;2022-11-11T02:28:28;25.83;;;13.60;;
18114;SDS011;9184;54.390;18.620;2022-11-11T02:29:02;27.23;;;14.27;;
18114;SDS011;9184;54.390;18.620;2022-11-11T02:29:34;22.63;;;12.57;;
18114;SDS011;9184;54.390;18.620;2022-11-11T02:30:06;25.25;;;13.40;;
18114;SDS011;9184;54.390;18.620;2022-11-11T02:30:44;29.75;;;13.60;;
18114;SDS011;9184;54.390;18.620;2022-11-11T02:31:14;28.77;;;12.00;;
18114;SDS011;9184;54.390;18.620;2022-11-11T02:31:45;23.88;;;12.82;;
18114;SDS011;9184;54.390;18.620;2022-11-11T02:32:16;17.52;;;12.35;;
18114;SDS011;9184;54.390;18.620;2022-11-11T02:32:50;25.42;;;13.13;;
18114;SDS011;9184;54.390;18.620;2022-11-11T02:33:20;32.33;;;13.00;;
18114;SDS011;9184;54.390;18.620;2022-11-11T02:33:52;24.23;;;13.00;;
18114;SDS011;9184;54.390;18.620;2022-11-11T02:34:27;27.20;;;13.20;;
18114;SDS011;9184;54.390;18.620;2022-11-11T02:34:57;27.50;;;14.20;;
18114;SDS011;9184;54.390;18.620;2022-11-11T02:35:30;25.52;;;13.45;;
18114;SDS011;9184;54.390;18.620;2022-11-11T02:36:00;25.80;;;13.13;;
18114;SDS011;9184;54.390;18.620;2022-11-11T02:36:32;27.75;;;14.40;;
18114;SDS011;9184;54.390;18.620;2022-11-11T02:37:04;22.25;;;12.38;;
18114;SDS011;9184;54.390;18.620;2022-11-11T02:37:36;24.27;;;12.65;;
18114;SDS011;9184;54.390;18.620;2022-11-11T02:38:07;21.88;;;11.02;;
18114;SDS011;9184;54.390;18.620;2022-11-11T02:38:37;26.30;;;13.43;;
18114;SDS011;9184;54.390;18.620;2022-11-11T02:39:08;24.73;;;12.43;;
18114;SDS011;9184;54.390;18.620;2022-11-11T02:39:42;23.00;;;12.30;;
18114;SDS011;9184;54.390;18.620;2022-11-11T02:40:15;23.58;;;12.52;;
18114;SDS011;9184;54.390;18.620;2022-11-11T02:40:46;22.55;;;12.55;;
18114;SDS011;9184;54.390;18.620;2022-11-11T02:41:31;22.55;;;12.40;;
18114;SDS011;9184;54.390;18.620;2022-11-11T02:42:21;25.23;;;11.38;;
18114;SDS011;9184;54.390;18.620;2022-11-11T02:42:52;18.58;;;11.60;;
18114;SDS011;9184;54.390;18.620;2022-11-11T02:43:23;23.63;;;12.55;;
18114;SDS011;9184;54.390;18.620;2022-11-11T02:43:53;22.02;;;10.88;;
18114;SDS011;9184;54.390;18.620;2022-11-11T02:44:25;19.98;;;12.13;;
18114;SDS011;9184;54.390;18.620;2022-11-11T02:44:55;19.80;;;10.93;;
18114;SDS011;9184;54.390;18.620;2022-11-11T02:45:28;21.05;;;11.45;;
18114;SDS011;9184;54.390;18.620;2022-11-11T02:46:00;23.52;;;11.20;;
18114;SDS011;9184;54.390;18.620;2022-11-11T02:46:31;23.40;;;11.30;;
18114;SDS011;9184;54.390;18.620;2022-11-11T02:47:01;18.45;;;9.98;;
18114;SDS011;9184;54.390;18.620;2022-11-11T02:47:33;16.65;;;10.15;;
18114;SDS011;9184;54.390;18.620;2022-11-11T02:48:03;19.80;;;10.20;;
18114;SDS011;9184;54.390;18.620;2022-11-11T02:48:34;28.67;;;12.02;;
18114;SDS011;9184;54.390;18.620;2022-11-11T02:49:06;19.08;;;9.57;;
18114;SDS011;9184;54.390;18.620;2022-11-11T02:49:36;16.50;;;10.27;;
18114;SDS011;9184;54.390;18.620;2022-11-11T02:50:07;20.67;;;10.55;;
18114;SDS011;9184;54.390;18.620;2022-11-11T02:50:39;19.17;;;9.90;;
18114;SDS011;9184;54.390;18.620;2022-11-11T02:51:09;21.25;;;9.55;;
18114;SDS011;9184;54.390;18.620;2022-11-11T02:51:40;18.23;;;10.88;;
18114;SDS011;9184;54.390;18.620;2022-11-11T02:52:10;21.15;;;10.27;;
18114;SDS011;9184;54.390;18.620;2022-11-11T02:52:41;21.60;;;10.18;;
18114;SDS011;9184;54.390;18.620;2022-11-11T02:53:12;23.08;;;10.07;;
18114;SDS011;9184;54.390;18.620;2022-11-11T02:53:43;18.80;;;9.85;;
18114;SDS011;9184;54.390;18.620;2022-11-11T02:54:14;17.70;;;8.70;;
18114;SDS011;9184;54.390;18.620;2022-11-11T02:54:46;18.45;;;9.40;;
18114;SDS011;9184;54.390;18.620;2022-11-11T02:55:18;18.70;;;9.13;;
18114;SDS011;9184;54.390;18.620;2022-11-11T02:55:49;16.45;;;8.32;;
18114;SDS011;9184;54.390;18.620;2022-11-11T02:56:20;19.98;;;8.68;;
18114;SDS011;9184;54.390;18.620;2022-11-11T02:57:05;21.08;;;10.35;;
18114;SDS011;9184;54.390;18.620;2022-11-11T02:57:39;21.52;;;9.82;;
18114;SDS011;9184;54.390;18.620;2022-11-11T02:58:10;20.60;;;9.43;;
18114;SDS011;9184;54.390;18.620;2022-11-11T02:58:41;23.13;;;9.30;;
18114;SDS011;9184;54.390;18.620;2022-11-11T02:59:11;18.10;;;9.68;;
18114;SDS011;9184;54.390;18.620;2022-11-11T02:59:42;17.65;;;8.77;;
18114;SDS011;9184;54.390;18.620;2022-11-11T03:00:14;22.15;;;8.93;;
18114;SDS011;9184;54.390;18.620;2022-11-11T03:00:44;18.77;;;8.30;;
18114;SDS011;9184;54.390;18.620;2022-11-11T03:01:15;18.33;;;9.48;;
18114;SDS011;9184;54.390;18.620;2022-11-11T03:01:48;18.33;;;10.18;;
18114;SDS011;9184;54.390;18.620;2022-11-11T03:02:19;15.18;;;8.55;;
18114;SDS011;9184;54.390;18.620;2022-11-11T03:02:50;16.52;;;8.98;;
18114;SDS011;9184;54.390;18.620;2022-11-11T03:03:21;23.42;;;9.13;;
18114;SDS011;9184;54.390;18.620;2022-11-11T03:03:51;15.82;;;8.20;;
18114;SDS011;9184;54.390;18.620;2022-11-11T03:04:22;15.55;;;8.35;;
18114;SDS011;9184;54.390;18.620;2022-11-11T03:04:53;18.42;;;8.13;;
18114;SDS011;9184;54.390;18.620;2022-11-11T03:05:25;18.73;;;8.68;;
18114;SDS011;9184;54.390;18.620;2022-11-11T03:05:55;20.60;;;8.73;;
18114;SDS011;9184;54.390;18.620;2022-11-11T03:06:26;20.15;;;8.75;;
18114;SDS011;9184;54.390;18.620;2022-11-11T03:06:57;18.60;;;8.52;;
18114;SDS011;9184;54.390;18.620;2022-11-11T03:07:28;23.02;;;8.88;;
18114;SDS011;9184;54.390;18.620;2022-11-11T03:07:59;19.45;;;8.63;;
18114;SDS011;9184;54.390;18.620;2022-11-11T03:08:29;19.05;;;8.55;;
18114;SDS011;9184;54.390;18.620;2022-11-11T03:09:00;19.35;;;8.73;;
18114;SDS011;9184;54.390;18.620;2022-11-11T03:09:31;17.90;;;8.57;;
18114;SDS011;9184;54.390;18.620;2022-11-11T03:10:03;15.98;;;8.77;;
18114;SDS011;9184;54.390;18.620;2022-11-11T03:10:34;18.92;;;8.45;;
18114;SDS011;9184;54.390;18.620;2022-11-11T03:11:05;21.70;;;8.68;;
18114;SDS011;9184;54.390;18.620;2022-11-11T03:11:35;18.92;;;9.23;;
18114;SDS011;9184;54.390;18.620;2022-11-11T03:12:07;24.45;;;9.68;;
18114;SDS011;9184;54.390;18.620;2022-11-11T03:12:38;19.98;;;8.65;;
18114;SDS011;9184;54.390;18.620;2022-11-11T03:13:09;22.13;;;8.43;;
18114;SDS011;9184;54.390;18.620;2022-11-11T03:13:39;18.73;;;8.07;;
18114;SDS011;9184;54.390;18.620;2022-11-11T03:14:10;20.27;;;9.55;;
18114;SDS011;9184;54.390;18.620;2022-11-11T03:14:41;15.88;;;8.18;;
18114;SDS011;9184;54.390;18.620;2022-11-11T03:15:11;18.25;;;8.20;;